createdAt,value
2022-09-16T00:05:53.169Z,105.53
2022-09-16T00:20:58.728Z,105.40
2022-09-16T00:36:12.694Z,104.51
2022-09-16T00:51:21.270Z,106.57
2022-09-16T01:06:28.862Z,106.72
2022-09-16T01:21:44.538Z,106.69
2022-09-16T01:36:56.849Z,107.15
2022-09-16T01:52:07.992Z,106.89
2022-09-16T02:07:16.572Z,106.65
2022-09-16T02:22:28.897Z,106.96
2022-09-16T02:37:41.394Z,106.51
2022-09-16T02:52:52.416Z,106.90
2022-09-16T03:07:58.273Z,106.63
2022-09-16T03:23:10.377Z,106.86
2022-09-16T03:38:17.315Z,107.36
2022-09-16T03:53:22.872Z,106.86
2022-09-16T04:08:28.466Z,107.20
2022-09-16T04:23:34.105Z,107.67
2022-09-16T04:38:39.983Z,107.78
2022-09-16T04:53:46.089Z,108.83
2022-09-16T05:08:52.936Z,108.70
2022-09-16T05:24:02.652Z,108.69
2022-09-16T05:39:22.585Z,108.71
2022-09-16T05:54:29.507Z,107.83
2022-09-16T06:09:35.044Z,106.93
2022-09-16T06:24:40.646Z,106.28
2022-09-16T06:39:46.379Z,105.27
2022-09-16T06:54:51.985Z,104.57
2022-09-16T07:09:57.584Z,104.49
2022-09-16T07:25:03.128Z,103.08
2022-09-16T07:40:09.950Z,101.36
2022-09-16T07:55:17.382Z,98.60
2022-09-16T08:10:23.040Z,97.92
2022-09-16T08:25:28.970Z,96.75
2022-09-16T08:40:37.825Z,95.97
2022-09-16T08:55:47.183Z,95.16
2022-09-16T09:10:57.612Z,94.12
2022-09-16T09:26:10.586Z,92.88
2022-09-16T09:41:22.733Z,92.50
2022-09-16T09:56:33.526Z,90.59
2022-09-16T10:11:49.090Z,84.36
2022-09-16T10:26:54.755Z,81.25
2022-09-16T10:42:00.818Z,83.97
2022-09-16T10:57:21.260Z,86.80
2022-09-16T11:13:00.177Z,85.67
2022-09-16T11:28:33.917Z,84.42
2022-09-16T11:43:55.588Z,85.74
2022-09-16T11:59:05.947Z,84.35
2022-09-16T12:14:17.192Z,79.91
2022-09-16T12:29:28.304Z,79.94
2022-09-16T12:44:54.281Z,84.17
2022-09-16T13:00:17.576Z,85.55
2022-09-16T13:15:29.832Z,86.93
2022-09-16T13:30:37.881Z,88.20
2022-09-16T13:45:44.979Z,87.34
2022-09-16T14:01:00.151Z,84.32
2022-09-16T14:16:06.886Z,83.92
2022-09-16T14:31:17.012Z,82.05
2022-09-16T14:46:22.673Z,84.68
2022-09-16T15:01:29.623Z,91.42
2022-09-16T15:16:41.174Z,95.59
2022-09-16T15:31:48.347Z,96.57
2022-09-16T15:46:54.158Z,96.10
2022-09-16T16:02:02.144Z,94.17
2022-09-16T16:17:14.301Z,98.07
2022-09-16T16:32:20.449Z,99.00
2022-09-16T16:47:26.677Z,98.85
2022-09-16T17:02:32.664Z,99.62
2022-09-16T17:17:38.695Z,99.93
2022-09-16T17:32:44.474Z,100.62
2022-09-16T17:47:50.162Z,102.76
2022-09-16T18:02:56.147Z,101.01
2022-09-16T18:18:01.778Z,98.70
2022-09-16T18:33:08.889Z,98.38
2022-09-16T18:48:14.957Z,97.80
2022-09-16T19:03:23.412Z,97.94
2022-09-16T19:18:30.079Z,96.26
2022-09-16T19:33:36.790Z,96.10
2022-09-16T19:48:44.008Z,97.05
2022-09-16T20:03:51.080Z,98.03
2022-09-16T20:18:56.704Z,97.71
2022-09-16T20:34:02.709Z,98.94
2022-09-16T20:49:11.569Z,101.27
2022-09-16T21:04:19.351Z,102.04
2022-09-16T21:19:25.437Z,102.43
2022-09-16T21:34:31.483Z,102.89
2022-09-16T21:49:37.375Z,103.46
2022-09-16T22:04:43.079Z,102.68
2022-09-16T22:19:49.830Z,103.17
2022-09-16T22:34:56.058Z,103.01
2022-09-16T22:50:01.567Z,103.09
2022-09-16T23:05:08.737Z,102.40
2022-09-16T23:20:14.491Z,102.86
2022-09-16T23:35:20.645Z,102.63
2022-09-16T23:50:26.185Z,101.25
